createdAt,value
2022-10-05T08:56:03.362Z,2.60
2022-10-05T08:58:57.359Z,2.67
2022-10-05T09:01:52.881Z,2.47
2022-10-05T09:04:35.839Z,2.28
2022-10-05T09:07:28.332Z,2.70
2022-10-05T09:10:01.558Z,2.67
2022-10-05T09:13:02.302Z,2.33
2022-10-05T09:15:44.330Z,2.50
2022-10-05T09:18:47.391Z,2.75
2022-10-05T09:21:26.501Z,2.85
2022-10-05T09:24:36.978Z,2.50
2022-10-05T09:27:17.462Z,2.50
2022-10-05T09:29:59.157Z,2.92
2022-10-05T09:33:03.187Z,2.55
2022-10-05T09:36:06.907Z,2.38
2022-10-05T09:38:56.663Z,2.78
2022-10-05T09:41:51.191Z,2.47
2022-10-05T09:44:54.931Z,2.40
2022-10-05T09:47:45.086Z,2.60
2022-10-05T09:50:27.020Z,2.78
2022-10-05T09:53:13.598Z,2.80
2022-10-05T09:55:55.100Z,2.53
2022-10-05T09:58:33.318Z,2.45
2022-10-05T10:01:09.393Z,2.60
2022-10-05T10:04:13.585Z,2.85
2022-10-05T10:07:02.315Z,2.72
2022-10-05T10:09:42.478Z,3.08
2022-10-05T10:12:47.557Z,2.60
2022-10-05T10:15:43.053Z,2.60
2022-10-05T10:18:18.600Z,2.80
2022-10-05T10:20:53.799Z,2.70
2022-10-05T10:23:47.516Z,2.50
2022-10-05T10:26:36.461Z,2.30
2022-10-05T10:29:15.120Z,2.45
2022-10-05T10:31:59.429Z,2.28
2022-10-05T10:34:44.831Z,2.30
2022-10-05T10:37:48.327Z,2.47
2022-10-05T10:40:42.995Z,2.17
2022-10-05T10:43:26.501Z,2.22
2022-10-05T10:46:11.842Z,2.50
2022-10-05T10:49:09.368Z,2.40
2022-10-05T10:51:54.539Z,2.40
2022-10-05T10:54:54.778Z,2.13
2022-10-05T10:58:15.874Z,2.40
2022-10-05T11:01:08.643Z,2.30
2022-10-05T11:03:53.073Z,1.98
2022-10-05T11:06:34.860Z,2.20
2022-10-05T11:09:10.217Z,2.53
2022-10-05T11:12:02.249Z,2.58
2022-10-05T11:14:53.202Z,2.05
2022-10-05T11:17:34.983Z,2.17
2022-10-05T11:20:38.950Z,2.10
2022-10-05T11:23:25.556Z,2.45
2022-10-05T11:26:16.957Z,1.98
2022-10-05T11:29:18.783Z,1.90
2022-10-05T11:31:59.024Z,2.38
2022-10-05T11:34:46.465Z,2.25
2022-10-05T11:37:35.029Z,2.08
2022-10-05T11:40:26.697Z,2.00
2022-10-05T11:43:30.245Z,2.28
2022-10-05T11:46:16.934Z,2.28
2022-10-05T11:48:56.568Z,2.10
2022-10-05T11:51:53.356Z,2.20
2022-10-05T11:57:38.560Z,2.40
2022-10-05T12:00:18.342Z,2.40
2022-10-05T12:03:10.272Z,2.22
2022-10-05T12:06:06.899Z,2.30
2022-10-05T12:08:48.634Z,2.00
2022-10-05T12:11:42.661Z,2.38
2022-10-05T12:14:38.632Z,2.20
2022-10-05T12:17:32.414Z,2.30
2022-10-05T12:20:06.133Z,2.40
2022-10-05T12:22:44.309Z,2.35
2022-10-05T12:25:41.452Z,2.55
2022-10-05T12:28:12.951Z,2.47
2022-10-05T12:30:48.761Z,2.50
2022-10-05T12:33:31.767Z,2.30
2022-10-05T12:36:13.538Z,2.50
2022-10-05T12:39:10.674Z,2.47
2022-10-05T12:41:49.436Z,2.35
2022-10-05T12:44:59.956Z,2.40
2022-10-05T12:47:32.315Z,2.88
2022-10-05T12:50:20.785Z,2.78
2022-10-05T12:53:02.197Z,2.83
2022-10-05T12:55:46.915Z,3.35
2022-10-05T12:58:48.669Z,2.90
2022-10-05T13:01:28.913Z,2.85
2022-10-05T13:04:04.438Z,2.90
2022-10-05T13:06:47.722Z,2.83
2022-10-05T13:09:34.726Z,2.97
2022-10-05T13:15:11.642Z,2.70
2022-10-05T13:17:41.392Z,2.88
2022-10-05T13:20:31.553Z,3.00
2022-10-05T13:23:05.653Z,2.75
2022-10-05T13:25:42.347Z,2.80
2022-10-05T13:28:14.712Z,2.38
2022-10-05T13:30:50.532Z,2.70
2022-10-05T13:33:55.761Z,3.15
2022-10-05T13:36:40.429Z,2.50
2022-10-05T13:39:24.715Z,2.60
2022-10-05T13:42:01.417Z,2.90
2022-10-05T13:44:44.017Z,3.13
2022-10-05T13:47:39.603Z,2.78
2022-10-05T13:50:16.930Z,2.85
2022-10-05T13:53:37.418Z,2.78
2022-10-05T13:56:25.943Z,2.40
2022-10-05T13:58:57.597Z,2.30
2022-10-05T14:01:42.870Z,2.42
2022-10-05T14:04:27.071Z,2.40
2022-10-05T14:06:53.524Z,2.55
2022-10-05T14:09:19.871Z,2.77
2022-10-05T14:12:05.249Z,2.88
2022-10-05T14:14:41.824Z,2.72
2022-10-05T14:17:15.823Z,2.75
2022-10-05T14:19:46.205Z,3.08
2022-10-05T14:22:23.411Z,3.50
2022-10-05T14:27:25.303Z,3.00
2022-10-05T14:30:15.015Z,2.83
2022-10-05T14:32:56.072Z,2.80
2022-10-05T14:35:28.062Z,2.90
2022-10-05T14:37:58.855Z,2.88
2022-10-05T14:40:34.447Z,2.67
2022-10-05T14:43:19.052Z,2.80
2022-10-05T14:45:57.708Z,2.53
2022-10-05T14:48:29.221Z,3.10
2022-10-05T14:51:03.436Z,2.92
2022-10-05T14:53:43.498Z,2.53
2022-10-05T14:56:17.162Z,3.13
2022-10-05T14:59:22.219Z,2.80
2022-10-05T15:01:57.532Z,3.28
2022-10-05T15:04:49.944Z,3.00
2022-10-05T15:07:31.993Z,3.20
2022-10-05T15:10:07.794Z,3.33
2022-10-05T15:12:43.972Z,3.40
2022-10-05T15:15:32.736Z,3.28
2022-10-05T15:18:07.809Z,3.42
2022-10-05T15:20:56.178Z,3.03
2022-10-05T15:23:42.851Z,3.03
2022-10-05T15:26:30.576Z,3.05
2022-10-05T15:29:09.816Z,3.00
2022-10-05T15:31:43.299Z,3.58
2022-10-05T15:34:17.913Z,3.42
2022-10-05T15:36:56.165Z,3.58
2022-10-05T15:39:44.307Z,3.22
2022-10-05T15:42:15.252Z,3.30
2022-10-05T15:44:59.859Z,3.55
2022-10-05T15:47:45.770Z,3.50
2022-10-05T15:50:17.980Z,3.17
2022-10-05T15:52:50.875Z,3.40
2022-10-05T15:55:39.257Z,3.47
2022-10-05T15:58:16.434Z,3.60
2022-10-05T16:00:48.515Z,3.30
2022-10-05T16:03:43.211Z,3.78
2022-10-05T16:06:42.814Z,3.50
2022-10-05T16:09:09.117Z,3.65
2022-10-05T16:11:51.287Z,3.97
2022-10-05T16:14:32.987Z,4.20
2022-10-05T16:17:08.362Z,3.78
2022-10-05T16:19:47.505Z,3.78
2022-10-05T16:22:31.244Z,4.30
2022-10-05T16:25:29.608Z,4.15
2022-10-05T16:28:05.839Z,4.35
2022-10-05T16:31:06.616Z,3.88
2022-10-05T16:33:54.671Z,4.20
2022-10-05T16:36:40.317Z,3.92
2022-10-05T16:39:20.455Z,4.70
2022-10-05T16:42:02.084Z,3.72
2022-10-05T16:44:41.483Z,4.70
2022-10-05T16:47:32.384Z,4.22
2022-10-05T16:50:33.816Z,4.13
2022-10-05T16:53:09.926Z,3.97
2022-10-05T16:55:44.468Z,3.80
2022-10-05T16:58:20.848Z,3.67
2022-10-05T17:01:10.457Z,3.70
2022-10-05T17:04:00.112Z,3.70
2022-10-05T17:06:48.200Z,3.70
2022-10-05T17:09:30.224Z,3.40
2022-10-05T17:12:21.008Z,3.42
2022-10-05T17:14:56.373Z,3.63
2022-10-05T17:17:22.776Z,3.50
2022-10-05T17:20:08.971Z,3.50
2022-10-05T17:22:54.943Z,3.80
2022-10-05T17:25:24.254Z,3.38
2022-10-05T17:28:14.986Z,3.17
2022-10-05T17:31:07.586Z,3.30
2022-10-05T17:33:54.680Z,3.40
2022-10-05T17:39:06.310Z,2.95
2022-10-05T17:41:32.939Z,3.38
2022-10-05T17:44:16.094Z,3.20
2022-10-05T17:46:56.897Z,3.35
2022-10-05T17:50:17.756Z,3.10
2022-10-05T17:53:03.787Z,2.63
2022-10-05T17:55:32.897Z,3.10
2022-10-05T17:58:29.073Z,3.42
2022-10-05T18:00:58.449Z,3.58
2022-10-05T18:03:51.499Z,3.55
2022-10-05T18:06:28.304Z,3.67
2022-10-05T18:09:23.015Z,3.75
2022-10-05T18:12:07.924Z,3.75
2022-10-05T18:15:06.212Z,3.47
2022-10-05T18:17:47.737Z,3.35
2022-10-05T18:20:30.045Z,2.92
2022-10-05T18:23:09.602Z,3.15
2022-10-05T18:25:43.388Z,2.95
2022-10-05T18:28:09.886Z,3.00
2022-10-05T18:31:16.319Z,3.17
2022-10-05T18:33:57.092Z,3.40
2022-10-05T18:36:42.961Z,3.35
2022-10-05T18:39:27.289Z,3.17
2022-10-05T18:42:13.390Z,2.90
2022-10-05T18:44:45.185Z,3.28
2022-10-05T18:47:17.045Z,3.10
2022-10-05T18:49:59.682Z,3.22
2022-10-05T18:52:58.568Z,3.13
2022-10-05T18:55:38.073Z,2.90
2022-10-05T18:58:31.984Z,3.28
2022-10-05T19:01:08.233Z,3.38
2022-10-05T19:03:59.033Z,3.22
2022-10-05T19:06:30.370Z,2.95
2022-10-05T19:09:14.345Z,3.15
2022-10-05T19:11:56.486Z,3.00
2022-10-05T19:14:52.445Z,3.38
2022-10-05T19:17:31.485Z,3.30
2022-10-05T19:20:15.191Z,3.47
2022-10-05T19:23:02.082Z,3.22
2022-10-05T19:25:34.900Z,3.38
2022-10-05T19:28:10.798Z,3.40
2022-10-05T19:31:12.481Z,3.05
2022-10-05T19:34:16.584Z,3.50
2022-10-05T19:37:03.486Z,3.30
2022-10-05T19:39:40.264Z,3.50
2022-10-05T19:42:25.190Z,3.33
2022-10-05T19:45:07.964Z,3.13
2022-10-05T19:47:52.137Z,3.17
2022-10-05T19:50:32.766Z,2.90
2022-10-05T19:53:14.463Z,3.35
2022-10-05T19:55:46.946Z,2.95
2022-10-05T19:58:28.456Z,2.88
2022-10-05T20:01:00.897Z,3.10
2022-10-05T20:03:32.452Z,3.15
2022-10-05T20:06:07.075Z,3.05
2022-10-05T20:08:41.803Z,2.85
2022-10-05T20:11:22.615Z,3.38
2022-10-05T20:13:51.717Z,4.75
2022-10-05T20:16:45.138Z,3.15
2022-10-05T20:19:45.705Z,3.50
2022-10-05T20:22:27.641Z,3.60
2022-10-05T20:24:56.767Z,3.33
2022-10-05T20:27:48.952Z,3.55
2022-10-05T20:30:18.933Z,3.28
2022-10-05T20:32:52.439Z,3.33
2022-10-05T20:35:22.355Z,3.65
2022-10-05T20:37:49.973Z,3.50
2022-10-05T20:40:18.747Z,3.60
2022-10-05T20:42:45.376Z,3.10
2022-10-05T20:45:13.038Z,3.13
2022-10-05T20:47:40.431Z,3.60
2022-10-05T20:50:11.934Z,3.10
2022-10-05T20:52:38.883Z,2.70
2022-10-05T20:55:10.325Z,2.92
2022-10-05T20:57:42.259Z,3.20
2022-10-05T21:00:13.079Z,4.22
2022-10-05T21:02:39.574Z,4.47
2022-10-05T21:05:07.518Z,3.60
2022-10-05T21:07:34.252Z,3.22
2022-10-05T21:10:01.526Z,3.13
2022-10-05T21:12:28.192Z,3.80
2022-10-05T21:14:54.797Z,3.23
2022-10-05T21:17:21.278Z,3.20
2022-10-05T21:19:48.135Z,2.92
2022-10-05T21:22:14.773Z,3.17
2022-10-05T21:24:41.480Z,3.17
2022-10-05T21:27:08.350Z,3.58
2022-10-05T21:29:35.762Z,3.58
2022-10-05T21:32:02.733Z,3.40
2022-10-05T21:34:29.198Z,3.45
2022-10-05T21:36:55.799Z,4.10
2022-10-05T21:39:22.399Z,3.57
2022-10-05T21:41:49.765Z,6.90
2022-10-05T21:44:16.731Z,7.78
2022-10-05T21:46:43.222Z,4.00
2022-10-05T21:49:09.968Z,4.10
2022-10-05T21:51:37.242Z,5.53
2022-10-05T21:54:11.263Z,4.32
2022-10-05T21:56:41.525Z,4.00
2022-10-05T21:59:11.761Z,3.80
2022-10-05T22:01:38.159Z,3.47
2022-10-05T22:04:06.163Z,3.25
2022-10-05T22:06:34.261Z,4.18
2022-10-05T22:09:01.306Z,3.75
2022-10-05T22:11:29.049Z,4.07
2022-10-05T22:14:02.217Z,4.22
2022-10-05T22:16:31.578Z,3.75
2022-10-05T22:18:58.894Z,4.05
2022-10-05T22:21:25.568Z,4.20
2022-10-05T22:23:52.031Z,4.53
2022-10-05T22:26:20.963Z,3.38
2022-10-05T22:28:48.507Z,4.00
2022-10-05T22:33:42.060Z,3.90
2022-10-05T22:36:10.063Z,3.45
2022-10-05T22:38:36.656Z,3.38
2022-10-05T22:41:03.143Z,3.73
2022-10-05T22:43:29.782Z,3.53
2022-10-05T22:45:56.504Z,3.33
2022-10-05T22:48:23.095Z,3.70
2022-10-05T22:50:49.659Z,3.70
2022-10-05T22:53:16.164Z,3.33
2022-10-05T22:55:42.639Z,3.90
2022-10-05T22:58:09.109Z,3.63
2022-10-05T23:00:56.957Z,3.10
2022-10-05T23:03:21.939Z,3.55
2022-10-05T23:05:48.433Z,3.25
2022-10-05T23:08:16.022Z,3.50
2022-10-05T23:13:08.924Z,3.20
2022-10-05T23:15:35.814Z,3.08
2022-10-05T23:18:02.249Z,3.03
2022-10-05T23:20:29.108Z,2.85
2022-10-05T23:22:55.636Z,3.20
2022-10-05T23:25:22.296Z,3.00
2022-10-05T23:27:48.864Z,3.20
2022-10-05T23:30:15.505Z,2.95
2022-10-05T23:32:43.311Z,2.90
2022-10-05T23:35:12.704Z,2.58
2022-10-05T23:37:44.328Z,2.70
2022-10-05T23:40:13.648Z,2.50
2022-10-05T23:42:40.532Z,2.20
2022-10-05T23:45:11.451Z,2.17
2022-10-05T23:47:38.698Z,1.88
2022-10-05T23:50:07.044Z,1.90
2022-10-05T23:52:34.517Z,1.75
2022-10-05T23:57:28.176Z,1.70
2022-10-05T23:59:56.254Z,1.83
